Fujimo — WDF6919 — position and weather

sailwx.info

Track history (hours):
 
Tides and Currents Weather Stations Pressure Air Temp Water Temp Dewpoint Dewpoint Depression Visibility Wind Speed Wind Dir Waves Ship Positions

Fujimo

Owner: SKOCZYLAS, ANDRZEJ, POLAND 05-092, DE. More information available from US FCC via Universal Licensing System and Coast Guard Vessel Documentation Center.

Last reported at 2018-Jun-24 15:10 UTC. Time now 2018-Jun-25 09:27 UTC.
Position N 54°39' E 019°06'.

Length 15 m.

Type: Sailing vessel. MMSI: 367479190.

Date/timePositionNaut miles runAvg speedWind from/ knotsBaromVisibWave heightAir tempDewpointWater temp
2018-Jun-24 15:10N 54°39' E 019°06'1 7.7
2018-Jun-24 14:59N 54°38' E 019°05'4 7.7
2018-Jun-24 14:30N 54°34' E 019°02'4 7.3
2018-Jun-24 13:59N 54°31' E 018°58'2 5.0
2018-Jun-24 13:30N 54°29' E 018°56'3 5.2
2018-Jun-24 12:58N 54°28' E 018°52'3 5.7
2018-Jun-24 12:30N 54°26' E 018°48'1 2.8
2018-Jun-24 12:00N 54°25' E 018°47'2 3.4
2018-Jun-24 11:30N 54°23' E 018°47'1 2.8
2018-Jun-24 11:00N 54°21' E 018°47'0 0.0
2018-Jun-24 10:30N 54°21' E 018°47'0 0.0
2018-Jun-24 10:00N 54°21' E 018°47'0 0.0
2018-Jun-24 09:30N 54°21' E 018°47'0 0.0
2018-Jun-24 09:00N 54°21' E 018°47'0 0.0
2018-Jun-24 08:30N 54°21' E 018°47'0 0.0
2018-Jun-23 21:21N 54°21' E 018°47'  
Track history (hours):
 
Tides and Currents Weather Stations Pressure Air Temp Water Temp Dewpoint Dewpoint Depression Visibility Wind Speed Wind Dir Waves Ship Positions

Fujimo

Owner: SKOCZYLAS, ANDRZEJ, POLAND 05-092, DE. More information available from US FCC via Universal Licensing System and Coast Guard Vessel Documentation Center.

Last reported at 2018-Jun-24 15:10 UTC. Time now 2018-Jun-25 09:27 UTC.
Position N 54°39' E 019°06'.

Length 15 m.

Type: Sailing vessel. MMSI: 367479190.

Date/timePositionNaut miles runAvg speedWind from/ knotsBaromVisibWave heightAir tempDewpointWater temp
2018-Jun-24 15:10N 54°39' E 019°06'1 7.7
2018-Jun-24 14:59N 54°38' E 019°05'4 7.7
2018-Jun-24 14:30N 54°34' E 019°02'4 7.3
2018-Jun-24 13:59N 54°31' E 018°58'2 5.0
2018-Jun-24 13:30N 54°29' E 018°56'3 5.2
2018-Jun-24 12:58N 54°28' E 018°52'3 5.7
2018-Jun-24 12:30N 54°26' E 018°48'1 2.8
2018-Jun-24 12:00N 54°25' E 018°47'2 3.4
2018-Jun-24 11:30N 54°23' E 018°47'1 2.8
2018-Jun-24 11:00N 54°21' E 018°47'0 0.0
2018-Jun-24 10:30N 54°21' E 018°47'0 0.0
2018-Jun-24 10:00N 54°21' E 018°47'0 0.0
2018-Jun-24 09:30N 54°21' E 018°47'0 0.0
2018-Jun-24 09:00N 54°21' E 018°47'0 0.0
2018-Jun-24 08:30N 54°21' E 018°47'0 0.0
2018-Jun-23 21:21N 54°21' E 018°47'  

Dump ship's entire track history